sensor_id;sensor_type;location;lat;lon;timestamp;temperature;humidity
4223;DHT22;2125;51.436;14.138;2022-07-09T05:21:17;19.40;80.20
4223;DHT22;2125;51.436;14.138;2022-07-09T05:23:47;19.40;78.30
4223;DHT22;2125;51.436;14.138;2022-07-09T05:26:17;18.80;79.00
4223;DHT22;2125;51.436;14.138;2022-07-09T05:28:46;18.20;80.10
4223;DHT22;2125;51.436;14.138;2022-07-09T05:31:12;17.90;81.70
4223;DHT22;2125;51.436;14.138;2022-07-09T05:33:42;17.80;81.80
4223;DHT22;2125;51.436;14.138;2022-07-09T05:36:15;17.40;82.00
4223;DHT22;2125;51.436;14.138;2022-07-09T05:38:44;17.10;83.00
4223;DHT22;2125;51.436;14.138;2022-07-09T05:41:12;17.50;83.50
4223;DHT22;2125;51.436;14.138;2022-07-09T05:43:39;17.80;82.00
4223;DHT22;2125;51.436;14.138;2022-07-09T05:46:06;18.50;81.20
4223;DHT22;2125;51.436;14.138;2022-07-09T05:48:35;19.20;78.20
4223;DHT22;2125;51.436;14.138;2022-07-09T05:51:01;19.10;77.50
4223;DHT22;2125;51.436;14.138;2022-07-09T05:53:28;18.90;78.70
4223;DHT22;2125;51.436;14.138;2022-07-09T05:55:56;18.60;79.70
4223;DHT22;2125;51.436;14.138;2022-07-09T05:58:23;18.10;80.10
4223;DHT22;2125;51.436;14.138;2022-07-09T06:00:49;17.70;81.50
4223;DHT22;2125;51.436;14.138;2022-07-09T06:03:16;17.40;82.30
4223;DHT22;2125;51.436;14.138;2022-07-09T06:05:43;17.30;82.60
4223;DHT22;2125;51.436;14.138;2022-07-09T06:08:09;17.80;81.90
4223;DHT22;2125;51.436;14.138;2022-07-09T06:10:37;17.50;80.40
4223;DHT22;2125;51.436;14.138;2022-07-09T06:13:05;17.50;81.90
4223;DHT22;2125;51.436;14.138;2022-07-09T06:15:32;18.20;81.80
4223;DHT22;2125;51.436;14.138;2022-07-09T06:17:58;18.60;79.80
4223;DHT22;2125;51.436;14.138;2022-07-09T06:20:25;18.20;78.60
4223;DHT22;2125;51.436;14.138;2022-07-09T06:22:51;17.50;80.10
4223;DHT22;2125;51.436;14.138;2022-07-09T06:25:18;17.00;81.90
4223;DHT22;2125;51.436;14.138;2022-07-09T06:27:45;16.90;82.40
4223;DHT22;2125;51.436;14.138;2022-07-09T06:30:14;16.80;82.20
4223;DHT22;2125;51.436;14.138;2022-07-09T06:32:40;16.90;81.10
4223;DHT22;2125;51.436;14.138;2022-07-09T06:35:08;17.30;81.30
4223;DHT22;2125;51.436;14.138;2022-07-09T06:37:34;17.20;79.50
4223;DHT22;2125;51.436;14.138;2022-07-09T06:40:01;17.10;79.90
4223;DHT22;2125;51.436;14.138;2022-07-09T06:42:27;17.00;79.60
4223;DHT22;2125;51.436;14.138;2022-07-09T06:44:54;16.90;78.90
4223;DHT22;2125;51.436;14.138;2022-07-09T06:47:22;17.00;79.70
4223;DHT22;2125;51.436;14.138;2022-07-09T06:49:48;17.20;80.40
4223;DHT22;2125;51.436;14.138;2022-07-09T06:52:16;17.20;79.40
4223;DHT22;2125;51.436;14.138;2022-07-09T06:54:42;17.10;78.60
4223;DHT22;2125;51.436;14.138;2022-07-09T06:57:09;16.70;79.10
4223;DHT22;2125;51.436;14.138;2022-07-09T06:59:36;16.40;80.10
4223;DHT22;2125;51.436;14.138;2022-07-09T07:02:04;16.30;80.90
4223;DHT22;2125;51.436;14.138;2022-07-09T07:04:32;16.20;80.70
4223;DHT22;2125;51.436;14.138;2022-07-09T07:06:59;16.10;80.50
4223;DHT22;2125;51.436;14.138;2022-07-09T07:09:25;16.20;81.20
4223;DHT22;2125;51.436;14.138;2022-07-09T07:11:52;16.20;80.70
4223;DHT22;2125;51.436;14.138;2022-07-09T07:14:18;16.40;81.60
4223;DHT22;2125;51.436;14.138;2022-07-09T07:16:45;16.50;81.10
4223;DHT22;2125;51.436;14.138;2022-07-09T07:19:12;16.80;80.70
4223;DHT22;2125;51.436;14.138;2022-07-09T07:21:40;17.20;80.50
4223;DHT22;2125;51.436;14.138;2022-07-09T07:24:07;17.40;78.70
4223;DHT22;2125;51.436;14.138;2022-07-09T07:26:34;17.20;78.10
4223;DHT22;2125;51.436;14.138;2022-07-09T07:29:01;17.20;78.90
4223;DHT22;2125;51.436;14.138;2022-07-09T07:31:27;17.40;79.00
4223;DHT22;2125;51.436;14.138;2022-07-09T07:33:54;17.80;78.70
4223;DHT22;2125;51.436;14.138;2022-07-09T07:36:21;17.90;75.70
4223;DHT22;2125;51.436;14.138;2022-07-09T07:38:49;17.80;74.80
4223;DHT22;2125;51.436;14.138;2022-07-09T07:41:15;17.60;76.10
4223;DHT22;2125;51.436;14.138;2022-07-09T07:43:43;17.50;77.20
4223;DHT22;2125;51.436;14.138;2022-07-09T07:46:10;17.50;77.50
4223;DHT22;2125;51.436;14.138;2022-07-09T07:48:37;17.50;77.20
4223;DHT22;2125;51.436;14.138;2022-07-09T07:51:07;17.70;78.10
4223;DHT22;2125;51.436;14.138;2022-07-09T07:53:34;17.50;76.20
4223;DHT22;2125;51.436;14.138;2022-07-09T07:56:03;17.40;77.20
4223;DHT22;2125;51.436;14.138;2022-07-09T07:58:30;17.70;78.20
4223;DHT22;2125;51.436;14.138;2022-07-09T08:00:57;17.80;76.20
4223;DHT22;2125;51.436;14.138;2022-07-09T08:03:24;18.00;75.20
4223;DHT22;2125;51.436;14.138;2022-07-09T08:05:50;18.00;75.60
4223;DHT22;2125;51.436;14.138;2022-07-09T08:08:17;18.20;76.60
4223;DHT22;2125;51.436;14.138;2022-07-09T08:10:44;18.40;74.40
4223;DHT22;2125;51.436;14.138;2022-07-09T08:13:12;18.40;73.20
4223;DHT22;2125;51.436;14.138;2022-07-09T08:15:39;18.60;73.30
4223;DHT22;2125;51.436;14.138;2022-07-09T08:18:06;18.90;74.50
4223;DHT22;2125;51.436;14.138;2022-07-09T08:20:37;19.20;74.20
4223;DHT22;2125;51.436;14.138;2022-07-09T08:23:04;19.10;73.10
4223;DHT22;2125;51.436;14.138;2022-07-09T08:25:31;19.20;72.60
4223;DHT22;2125;51.436;14.138;2022-07-09T08:27:59;19.20;72.80
4223;DHT22;2125;51.436;14.138;2022-07-09T08:30:27;19.40;73.30
4223;DHT22;2125;51.436;14.138;2022-07-09T08:32:54;19.50;70.80
4223;DHT22;2125;51.436;14.138;2022-07-09T08:35:21;19.60;70.50
4223;DHT22;2125;51.436;14.138;2022-07-09T08:37:47;19.70;72.40
4223;DHT22;2125;51.436;14.138;2022-07-09T08:40:14;19.70;71.50
4223;DHT22;2125;51.436;14.138;2022-07-09T08:42:41;19.80;73.00
4223;DHT22;2125;51.436;14.138;2022-07-09T08:45:11;19.70;71.10
4223;DHT22;2125;51.436;14.138;2022-07-09T08:47:40;19.50;72.70
4223;DHT22;2125;51.436;14.138;2022-07-09T08:50:08;19.30;71.50
4223;DHT22;2125;51.436;14.138;2022-07-09T08:52:35;19.30;72.00
4223;DHT22;2125;51.436;14.138;2022-07-09T08:55:03;19.40;72.60
4223;DHT22;2125;51.436;14.138;2022-07-09T08:57:30;19.50;73.60
4223;DHT22;2125;51.436;14.138;2022-07-09T08:59:57;19.60;74.20
4223;DHT22;2125;51.436;14.138;2022-07-09T09:02:23;19.50;73.20
4223;DHT22;2125;51.436;14.138;2022-07-09T09:04:54;19.40;72.50
4223;DHT22;2125;51.436;14.138;2022-07-09T09:07:22;19.00;72.80
4223;DHT22;2125;51.436;14.138;2022-07-09T09:09:48;18.90;73.10
4223;DHT22;2125;51.436;14.138;2022-07-09T09:12:15;18.80;73.80
4223;DHT22;2125;51.436;14.138;2022-07-09T09:14:52;18.90;75.30
4223;DHT22;2125;51.436;14.138;2022-07-09T09:17:18;19.10;75.20
4223;DHT22;2125;51.436;14.138;2022-07-09T09:19:45;19.30;74.60
4223;DHT22;2125;51.436;14.138;2022-07-09T09:22:16;19.80;74.40
4223;DHT22;2125;51.436;14.138;2022-07-09T09:24:43;19.90;70.10
4223;DHT22;2125;51.436;14.138;2022-07-09T09:27:14;19.80;72.00
4223;DHT22;2125;51.436;14.138;2022-07-09T09:29:49;19.80;72.50
4223;DHT22;2125;51.436;14.138;2022-07-09T09:32:19;19.60;73.50
4223;DHT22;2125;51.436;14.138;2022-07-09T09:34:48;19.50;74.80
4223;DHT22;2125;51.436;14.138;2022-07-09T09:37:26;19.50;74.20
4223;DHT22;2125;51.436;14.138;2022-07-09T09:39:52;19.60;74.40
4223;DHT22;2125;51.436;14.138;2022-07-09T09:42:19;20.10;74.40
4223;DHT22;2125;51.436;14.138;2022-07-09T09:44:49;20.50;71.30
4223;DHT22;2125;51.436;14.138;2022-07-09T09:47:19;21.00;73.10
4223;DHT22;2125;51.436;14.138;2022-07-09T09:49:49;21.00;68.00
4223;DHT22;2125;51.436;14.138;2022-07-09T09:52:18;20.90;71.50
4223;DHT22;2125;51.436;14.138;2022-07-09T09:54:47;20.80;69.70
4223;DHT22;2125;51.436;14.138;2022-07-09T09:57:14;20.70;71.70
4223;DHT22;2125;51.436;14.138;2022-07-09T09:59:43;20.60;72.70
4223;DHT22;2125;51.436;14.138;2022-07-09T10:02:11;20.40;71.40
4223;DHT22;2125;51.436;14.138;2022-07-09T10:04:38;20.30;73.20
4223;DHT22;2125;51.436;14.138;2022-07-09T10:07:06;20.10;72.80
4223;DHT22;2125;51.436;14.138;2022-07-09T10:09:33;20.00;73.20
4223;DHT22;2125;51.436;14.138;2022-07-09T10:12:01;19.80;71.60
4223;DHT22;2125;51.436;14.138;2022-07-09T10:14:31;19.70;72.00
4223;DHT22;2125;51.436;14.138;2022-07-09T10:17:10;19.60;72.80
4223;DHT22;2125;51.436;14.138;2022-07-09T10:19:38;19.70;74.10
4223;DHT22;2125;51.436;14.138;2022-07-09T10:22:04;19.70;74.30
4223;DHT22;2125;51.436;14.138;2022-07-09T10:24:33;19.80;73.60
4223;DHT22;2125;51.436;14.138;2022-07-09T10:27:05;19.80;72.10
4223;DHT22;2125;51.436;14.138;2022-07-09T10:29:34;20.10;72.80
4223;DHT22;2125;51.436;14.138;2022-07-09T10:32:01;20.50;72.60
4223;DHT22;2125;51.436;14.138;2022-07-09T10:34:42;20.70;70.10
4223;DHT22;2125;51.436;14.138;2022-07-09T10:37:10;20.80;72.80
4223;DHT22;2125;51.436;14.138;2022-07-09T10:39:37;20.80;72.20
4223;DHT22;2125;51.436;14.138;2022-07-09T10:42:06;20.70;71.20
4223;DHT22;2125;51.436;14.138;2022-07-09T10:44:35;20.80;72.10
4223;DHT22;2125;51.436;14.138;2022-07-09T10:47:02;20.60;71.70
4223;DHT22;2125;51.436;14.138;2022-07-09T10:49:29;20.60;72.80
4223;DHT22;2125;51.436;14.138;2022-07-09T10:51:56;20.40;72.60
4223;DHT22;2125;51.436;14.138;2022-07-09T10:54:23;20.10;73.10
4223;DHT22;2125;51.436;14.138;2022-07-09T10:56:51;20.00;72.90
4223;DHT22;2125;51.436;14.138;2022-07-09T10:59:19;20.10;73.40
4223;DHT22;2125;51.436;14.138;2022-07-09T11:01:46;20.30;72.20
4223;DHT22;2125;51.436;14.138;2022-07-09T11:04:25;20.50;72.40
4223;DHT22;2125;51.436;14.138;2022-07-09T11:06:51;20.60;71.80
4223;DHT22;2125;51.436;14.138;2022-07-09T11:09:19;20.50;72.20
4223;DHT22;2125;51.436;14.138;2022-07-09T11:11:45;20.30;73.10
4223;DHT22;2125;51.436;14.138;2022-07-09T11:14:13;20.20;74.50
4223;DHT22;2125;51.436;14.138;2022-07-09T11:16:41;20.00;72.60
4223;DHT22;2125;51.436;14.138;2022-07-09T11:19:14;19.90;73.00
4223;DHT22;2125;51.436;14.138;2022-07-09T11:21:41;19.80;74.20
4223;DHT22;2125;51.436;14.138;2022-07-09T11:24:15;19.90;73.60
4223;DHT22;2125;51.436;14.138;2022-07-09T11:26:42;20.20;74.60
4223;DHT22;2125;51.436;14.138;2022-07-09T11:29:09;20.40;72.70
4223;DHT22;2125;51.436;14.138;2022-07-09T11:31:36;20.70;73.00
4223;DHT22;2125;51.436;14.138;2022-07-09T11:34:04;20.90;71.60
4223;DHT22;2125;51.436;14.138;2022-07-09T11:36:41;21.20;72.30
4223;DHT22;2125;51.436;14.138;2022-07-09T11:39:08;21.20;70.00
4223;DHT22;2125;51.436;14.138;2022-07-09T11:41:41;20.90;69.90
4223;DHT22;2125;51.436;14.138;2022-07-09T11:44:09;20.90;70.20
4223;DHT22;2125;51.436;14.138;2022-07-09T11:46:37;20.80;70.00
4223;DHT22;2125;51.436;14.138;2022-07-09T11:49:13;20.60;71.50
4223;DHT22;2125;51.436;14.138;2022-07-09T11:51:40;20.40;70.60
4223;DHT22;2125;51.436;14.138;2022-07-09T11:54:08;20.00;71.00
4223;DHT22;2125;51.436;14.138;2022-07-09T11:56:41;20.00;71.70
4223;DHT22;2125;51.436;14.138;2022-07-09T11:59:10;20.40;70.90
4223;DHT22;2125;51.436;14.138;2022-07-09T12:01:37;20.70;71.30
4223;DHT22;2125;51.436;14.138;2022-07-09T12:04:05;21.10;72.30
4223;DHT22;2125;51.436;14.138;2022-07-09T12:06:32;21.30;71.70
4223;DHT22;2125;51.436;14.138;2022-07-09T12:09:00;21.80;70.90
4223;DHT22;2125;51.436;14.138;2022-07-09T12:11:27;21.90;68.80
4223;DHT22;2125;51.436;14.138;2022-07-09T12:13:54;21.80;70.10
4223;DHT22;2125;51.436;14.138;2022-07-09T12:16:20;22.20;70.50
4223;DHT22;2125;51.436;14.138;2022-07-09T12:18:47;22.40;68.80
4223;DHT22;2125;51.436;14.138;2022-07-09T12:21:15;22.60;67.80
4223;DHT22;2125;51.436;14.138;2022-07-09T12:23:41;22.50;66.70
4223;DHT22;2125;51.436;14.138;2022-07-09T12:26:08;22.20;68.70
4223;DHT22;2125;51.436;14.138;2022-07-09T12:28:35;21.80;67.00
4223;DHT22;2125;51.436;14.138;2022-07-09T12:31:01;21.40;67.10
4223;DHT22;2125;51.436;14.138;2022-07-09T12:33:28;21.10;67.80
4223;DHT22;2125;51.436;14.138;2022-07-09T12:35:54;21.10;70.20
4223;DHT22;2125;51.436;14.138;2022-07-09T12:38:22;21.10;69.10
4223;DHT22;2125;51.436;14.138;2022-07-09T12:40:50;21.00;68.60
4223;DHT22;2125;51.436;14.138;2022-07-09T12:43:17;21.00;68.90
4223;DHT22;2125;51.436;14.138;2022-07-09T12:45:44;21.00;68.90
4223;DHT22;2125;51.436;14.138;2022-07-09T12:48:11;21.10;68.40
4223;DHT22;2125;51.436;14.138;2022-07-09T12:50:38;21.30;67.60
4223;DHT22;2125;51.436;14.138;2022-07-09T12:53:04;21.20;67.60
4223;DHT22;2125;51.436;14.138;2022-07-09T12:55:32;21.30;67.60
4223;DHT22;2125;51.436;14.138;2022-07-09T12:57:59;21.50;68.10
4223;DHT22;2125;51.436;14.138;2022-07-09T13:00:25;21.80;69.40
4223;DHT22;2125;51.436;14.138;2022-07-09T13:02:52;22.00;67.90
4223;DHT22;2125;51.436;14.138;2022-07-09T13:05:18;22.10;66.90
4223;DHT22;2125;51.436;14.138;2022-07-09T13:07:45;22.20;68.20
4223;DHT22;2125;51.436;14.138;2022-07-09T13:10:11;22.40;66.30
4223;DHT22;2125;51.436;14.138;2022-07-09T13:12:40;22.30;65.90
4223;DHT22;2125;51.436;14.138;2022-07-09T13:15:07;22.10;66.50
4223;DHT22;2125;51.436;14.138;2022-07-09T13:17:34;22.00;68.30
4223;DHT22;2125;51.436;14.138;2022-07-09T13:20:00;22.00;68.70
4223;DHT22;2125;51.436;14.138;2022-07-09T13:22:27;22.10;67.40
4223;DHT22;2125;51.436;14.138;2022-07-09T13:24:54;22.00;67.00
4223;DHT22;2125;51.436;14.138;2022-07-09T13:27:21;22.10;66.70
4223;DHT22;2125;51.436;14.138;2022-07-09T13:29:49;22.30;64.80
4223;DHT22;2125;51.436;14.138;2022-07-09T13:32:16;22.20;64.30
4223;DHT22;2125;51.436;14.138;2022-07-09T13:34:42;22.30;65.50
4223;DHT22;2125;51.436;14.138;2022-07-09T13:37:09;22.50;64.60
4223;DHT22;2125;51.436;14.138;2022-07-09T13:39:35;22.60;68.00
4223;DHT22;2125;51.436;14.138;2022-07-09T13:42:02;22.60;66.20
4223;DHT22;2125;51.436;14.138;2022-07-09T13:44:29;22.60;66.60
4223;DHT22;2125;51.436;14.138;2022-07-09T13:46:59;22.80;65.40
4223;DHT22;2125;51.436;14.138;2022-07-09T13:49:26;22.70;62.20
4223;DHT22;2125;51.436;14.138;2022-07-09T13:51:53;22.40;63.60
4223;DHT22;2125;51.436;14.138;2022-07-09T13:54:20;22.20;65.80
4223;DHT22;2125;51.436;14.138;2022-07-09T13:56:47;22.10;66.20
4223;DHT22;2125;51.436;14.138;2022-07-09T13:59:14;22.20;65.20
4223;DHT22;2125;51.436;14.138;2022-07-09T14:01:40;22.20;67.20
4223;DHT22;2125;51.436;14.138;2022-07-09T14:04:08;22.10;65.40
4223;DHT22;2125;51.436;14.138;2022-07-09T14:06:36;22.00;66.90
4223;DHT22;2125;51.436;14.138;2022-07-09T14:09:03;22.00;66.60
4223;DHT22;2125;51.436;14.138;2022-07-09T14:11:30;22.20;67.50
4223;DHT22;2125;51.436;14.138;2022-07-09T14:13:56;22.40;66.60
4223;DHT22;2125;51.436;14.138;2022-07-09T14:16:23;22.50;64.70
4223;DHT22;2125;51.436;14.138;2022-07-09T14:18:50;22.50;64.60
4223;DHT22;2125;51.436;14.138;2022-07-09T14:21:18;22.50;65.20
4223;DHT22;2125;51.436;14.138;2022-07-09T14:23:45;22.50;63.80
4223;DHT22;2125;51.436;14.138;2022-07-09T14:26:13;22.40;61.50
4223;DHT22;2125;51.436;14.138;2022-07-09T14:28:40;22.30;65.40
4223;DHT22;2125;51.436;14.138;2022-07-09T14:31:06;22.30;63.40
4223;DHT22;2125;51.436;14.138;2022-07-09T14:33:34;22.20;62.60
4223;DHT22;2125;51.436;14.138;2022-07-09T14:36:00;22.00;62.80
4223;DHT22;2125;51.436;14.138;2022-07-09T14:38:28;22.10;63.50
4223;DHT22;2125;51.436;14.138;2022-07-09T14:40:55;22.50;63.70
4223;DHT22;2125;51.436;14.138;2022-07-09T14:43:22;22.60;63.20
4223;DHT22;2125;51.436;14.138;2022-07-09T14:45:48;22.90;64.20
4223;DHT22;2125;51.436;14.138;2022-07-09T14:48:15;22.90;63.50
4223;DHT22;2125;51.436;14.138;2022-07-09T14:50:41;23.00;63.60
4223;DHT22;2125;51.436;14.138;2022-07-09T14:53:08;23.00;61.50
4223;DHT22;2125;51.436;14.138;2022-07-09T14:55:36;23.10;61.40
4223;DHT22;2125;51.436;14.138;2022-07-09T14:58:03;23.20;62.60
4223;DHT22;2125;51.436;14.138;2022-07-09T15:00:29;23.40;61.40
4223;DHT22;2125;51.436;14.138;2022-07-09T15:02:56;23.30;61.20
4223;DHT22;2125;51.436;14.138;2022-07-09T15:05:23;23.00;61.00
4223;DHT22;2125;51.436;14.138;2022-07-09T15:07:50;22.90;60.80
4223;DHT22;2125;51.436;14.138;2022-07-09T15:10:16;22.90;59.70
4223;DHT22;2125;51.436;14.138;2022-07-09T15:12:44;22.60;61.40
4223;DHT22;2125;51.436;14.138;2022-07-09T15:15:11;22.60;62.40
4223;DHT22;2125;51.436;14.138;2022-07-09T15:17:37;22.40;61.60
4223;DHT22;2125;51.436;14.138;2022-07-09T15:20:05;22.50;61.50
4223;DHT22;2125;51.436;14.138;2022-07-09T15:22:31;22.90;63.90
4223;DHT22;2125;51.436;14.138;2022-07-09T15:24:58;23.20;60.30
4223;DHT22;2125;51.436;14.138;2022-07-09T15:27:29;23.20;59.00
4223;DHT22;2125;51.436;14.138;2022-07-09T15:29:58;23.20;60.50
4223;DHT22;2125;51.436;14.138;2022-07-09T15:32:25;23.80;59.20
4223;DHT22;2125;51.436;14.138;2022-07-09T15:34:52;24.40;60.70
4223;DHT22;2125;51.436;14.138;2022-07-09T15:37:18;24.90;57.80
4223;DHT22;2125;51.436;14.138;2022-07-09T15:39:45;25.00;56.90
4223;DHT22;2125;51.436;14.138;2022-07-09T15:42:11;24.90;57.90
4223;DHT22;2125;51.436;14.138;2022-07-09T15:44:38;25.40;58.10
4223;DHT22;2125;51.436;14.138;2022-07-09T15:47:06;25.20;54.40
4223;DHT22;2125;51.436;14.138;2022-07-09T15:49:34;25.10;58.40
4223;DHT22;2125;51.436;14.138;2022-07-09T15:52:02;25.60;56.10
4223;DHT22;2125;51.436;14.138;2022-07-09T15:54:29;25.90;55.00
4223;DHT22;2125;51.436;14.138;2022-07-09T15:56:55;26.00;52.80
4223;DHT22;2125;51.436;14.138;2022-07-09T15:59:22;25.50;53.00
4223;DHT22;2125;51.436;14.138;2022-07-09T16:01:50;24.80;53.10
4223;DHT22;2125;51.436;14.138;2022-07-09T16:04:18;24.10;56.20
4223;DHT22;2125;51.436;14.138;2022-07-09T16:06:44;23.80;58.00
4223;DHT22;2125;51.436;14.138;2022-07-09T16:09:11;23.60;57.60
4223;DHT22;2125;51.436;14.138;2022-07-09T16:11:37;23.40;56.70
4223;DHT22;2125;51.436;14.138;2022-07-09T16:14:22;23.20;58.80
4223;DHT22;2125;51.436;14.138;2022-07-09T16:16:48;23.10;58.80
4223;DHT22;2125;51.436;14.138;2022-07-09T16:19:15;22.90;59.50
4223;DHT22;2125;51.436;14.138;2022-07-09T16:21:43;22.90;59.70
4223;DHT22;2125;51.436;14.138;2022-07-09T16:24:09;22.80;56.80
4223;DHT22;2125;51.436;14.138;2022-07-09T16:26:36;22.70;57.60
4223;DHT22;2125;51.436;14.138;2022-07-09T16:29:02;22.90;59.40
4223;DHT22;2125;51.436;14.138;2022-07-09T16:31:29;22.90;59.70
4223;DHT22;2125;51.436;14.138;2022-07-09T16:33:55;22.90;59.30
4223;DHT22;2125;51.436;14.138;2022-07-09T16:36:22;22.70;59.40
4223;DHT22;2125;51.436;14.138;2022-07-09T16:38:50;22.30;61.80
4223;DHT22;2125;51.436;14.138;2022-07-09T16:41:17;22.00;63.50
4223;DHT22;2125;51.436;14.138;2022-07-09T16:43:43;21.90;64.00
4223;DHT22;2125;51.436;14.138;2022-07-09T16:46:10;21.70;64.80
4223;DHT22;2125;51.436;14.138;2022-07-09T16:48:38;21.50;64.90
4223;DHT22;2125;51.436;14.138;2022-07-09T16:51:06;21.50;65.20
4223;DHT22;2125;51.436;14.138;2022-07-09T16:53:33;21.60;65.20
4223;DHT22;2125;51.436;14.138;2022-07-09T16:56:01;21.60;65.20
4223;DHT22;2125;51.436;14.138;2022-07-09T16:58:29;21.60;65.60
4223;DHT22;2125;51.436;14.138;2022-07-09T17:00:56;21.50;66.00
4223;DHT22;2125;51.436;14.138;2022-07-09T17:03:22;21.40;66.70
4223;DHT22;2125;51.436;14.138;2022-07-09T17:05:49;21.30;66.90
4223;DHT22;2125;51.436;14.138;2022-07-09T17:08:16;21.20;67.10
4223;DHT22;2125;51.436;14.138;2022-07-09T17:10:42;21.10;67.30
4223;DHT22;2125;51.436;14.138;2022-07-09T17:13:11;20.90;68.40
4223;DHT22;2125;51.436;14.138;2022-07-09T17:15:37;20.80;70.30
4223;DHT22;2125;51.436;14.138;2022-07-09T17:18:04;20.50;72.80
4223;DHT22;2125;51.436;14.138;2022-07-09T17:20:31;20.00;74.60
4223;DHT22;2125;51.436;14.138;2022-07-09T17:22:58;19.50;79.90
4223;DHT22;2125;51.436;14.138;2022-07-09T17:25:24;19.00;82.80
4223;DHT22;2125;51.436;14.138;2022-07-09T17:27:51;18.60;84.10
4223;DHT22;2125;51.436;14.138;2022-07-09T17:30:20;18.40;84.60
4223;DHT22;2125;51.436;14.138;2022-07-09T17:32:46;18.30;84.90
4223;DHT22;2125;51.436;14.138;2022-07-09T17:35:13;18.30;85.40
4223;DHT22;2125;51.436;14.138;2022-07-09T17:37:40;18.10;85.50
4223;DHT22;2125;51.436;14.138;2022-07-09T17:40:08;18.10;85.70
4223;DHT22;2125;51.436;14.138;2022-07-09T17:42:35;18.10;85.80
4223;DHT22;2125;51.436;14.138;2022-07-09T17:45:01;18.00;86.00
4223;DHT22;2125;51.436;14.138;2022-07-09T17:47:29;18.00;85.80
4223;DHT22;2125;51.436;14.138;2022-07-09T17:49:56;18.10;85.90
4223;DHT22;2125;51.436;14.138;2022-07-09T17:52:23;18.40;85.90
4223;DHT22;2125;51.436;14.138;2022-07-09T17:54:50;18.50;86.00
4223;DHT22;2125;51.436;14.138;2022-07-09T17:57:16;18.60;85.90
4223;DHT22;2125;51.436;14.138;2022-07-09T17:59:43;18.60;85.90
4223;DHT22;2125;51.436;14.138;2022-07-09T18:02:11;18.50;85.80
4223;DHT22;2125;51.436;14.138;2022-07-09T18:04:39;18.40;85.70
4223;DHT22;2125;51.436;14.138;2022-07-09T18:07:05;18.40;85.80
4223;DHT22;2125;51.436;14.138;2022-07-09T18:09:35;18.40;85.80
4223;DHT22;2125;51.436;14.138;2022-07-09T18:12:03;18.40;85.80
4223;DHT22;2125;51.436;14.138;2022-07-09T18:14:29;18.40;85.70
4223;DHT22;2125;51.436;14.138;2022-07-09T18:16:56;18.30;85.80
4223;DHT22;2125;51.436;14.138;2022-07-09T18:19:23;18.20;85.80
4223;DHT22;2125;51.436;14.138;2022-07-09T18:21:51;18.20;86.00
4223;DHT22;2125;51.436;14.138;2022-07-09T18:24:18;18.20;86.10
4223;DHT22;2125;51.436;14.138;2022-07-09T18:26:44;18.10;86.20
4223;DHT22;2125;51.436;14.138;2022-07-09T18:29:11;18.10;86.20
4223;DHT22;2125;51.436;14.138;2022-07-09T18:31:39;18.10;86.20
4223;DHT22;2125;51.436;14.138;2022-07-09T18:34:06;17.90;86.20
4223;DHT22;2125;51.436;14.138;2022-07-09T18:36:32;17.90;86.30
4223;DHT22;2125;51.436;14.138;2022-07-09T18:39:00;17.80;86.30
4223;DHT22;2125;51.436;14.138;2022-07-09T18:41:27;17.90;86.30
4223;DHT22;2125;51.436;14.138;2022-07-09T18:43:54;17.90;86.30
4223;DHT22;2125;51.436;14.138;2022-07-09T18:46:20;17.90;86.30
4223;DHT22;2125;51.436;14.138;2022-07-09T18:48:47;17.90;86.20
4223;DHT22;2125;51.436;14.138;2022-07-09T18:51:14;17.90;86.20
4223;DHT22;2125;51.436;14.138;2022-07-09T18:53:41;17.90;86.20
4223;DHT22;2125;51.436;14.138;2022-07-09T18:56:10;17.90;86.30
4223;DHT22;2125;51.436;14.138;2022-07-09T18:58:37;17.80;86.30
4223;DHT22;2125;51.436;14.138;2022-07-09T19:01:04;17.80;86.30
4223;DHT22;2125;51.436;14.138;2022-07-09T19:03:31;17.80;86.30
4223;DHT22;2125;51.436;14.138;2022-07-09T19:05:57;17.80;86.30
4223;DHT22;2125;51.436;14.138;2022-07-09T19:08:24;17.80;86.30
4223;DHT22;2125;51.436;14.138;2022-07-09T19:10:51;17.80;86.30
4223;DHT22;2125;51.436;14.138;2022-07-09T19:13:21;17.70;86.10
4223;DHT22;2125;51.436;14.138;2022-07-09T19:15:47;17.70;86.00
4223;DHT22;2125;51.436;14.138;2022-07-09T19:18:14;17.60;85.90
4223;DHT22;2125;51.436;14.138;2022-07-09T19:20:41;17.60;85.90
4223;DHT22;2125;51.436;14.138;2022-07-09T19:23:07;17.60;86.00
4223;DHT22;2125;51.436;14.138;2022-07-09T19:25:34;17.60;86.10
4223;DHT22;2125;51.436;14.138;2022-07-09T19:28:01;17.50;86.10
4223;DHT22;2125;51.436;14.138;2022-07-09T19:30:29;17.50;86.30
4223;DHT22;2125;51.436;14.138;2022-07-09T19:33:13;17.50;86.40
4223;DHT22;2125;51.436;14.138;2022-07-09T19:35:58;17.40;86.40
4223;DHT22;2125;51.436;14.138;2022-07-09T19:38:25;17.30;86.50
4223;DHT22;2125;51.436;14.138;2022-07-09T19:40:51;17.20;86.50
4223;DHT22;2125;51.436;14.138;2022-07-09T19:43:19;17.20;86.40
4223;DHT22;2125;51.436;14.138;2022-07-09T19:45:47;17.20;86.50
4223;DHT22;2125;51.436;14.138;2022-07-09T19:48:13;17.20;86.50
4223;DHT22;2125;51.436;14.138;2022-07-09T19:50:44;17.10;86.50
4223;DHT22;2125;51.436;14.138;2022-07-09T19:53:11;17.00;86.50
4223;DHT22;2125;51.436;14.138;2022-07-09T19:55:38;17.00;86.60
4223;DHT22;2125;51.436;14.138;2022-07-09T19:58:05;16.90;86.60
4223;DHT22;2125;51.436;14.138;2022-07-09T20:00:32;16.90;86.50
4223;DHT22;2125;51.436;14.138;2022-07-09T20:03:00;16.80;86.50
4223;DHT22;2125;51.436;14.138;2022-07-09T20:05:27;16.70;86.50
4223;DHT22;2125;51.436;14.138;2022-07-09T20:07:54;16.60;86.70
4223;DHT22;2125;51.436;14.138;2022-07-09T20:10:20;16.40;86.70
4223;DHT22;2125;51.436;14.138;2022-07-09T20:12:47;16.30;86.70
4223;DHT22;2125;51.436;14.138;2022-07-09T20:15:14;16.20;86.70
4223;DHT22;2125;51.436;14.138;2022-07-09T20:17:41;16.10;86.70
4223;DHT22;2125;51.436;14.138;2022-07-09T20:20:10;16.00;86.70
4223;DHT22;2125;51.436;14.138;2022-07-09T20:22:37;15.90;86.90
4223;DHT22;2125;51.436;14.138;2022-07-09T20:25:04;15.80;86.90
4223;DHT22;2125;51.436;14.138;2022-07-09T20:27:31;15.60;86.90
4223;DHT22;2125;51.436;14.138;2022-07-09T20:29:58;15.50;86.90
4223;DHT22;2125;51.436;14.138;2022-07-09T20:32:25;15.40;87.00
4223;DHT22;2125;51.436;14.138;2022-07-09T20:34:51;15.40;87.00
4223;DHT22;2125;51.436;14.138;2022-07-09T20:37:19;15.40;87.10
4223;DHT22;2125;51.436;14.138;2022-07-09T20:39:46;15.50;87.10
4223;DHT22;2125;51.436;14.138;2022-07-09T20:42:13;15.50;87.00
4223;DHT22;2125;51.436;14.138;2022-07-09T20:44:39;15.60;87.00
4223;DHT22;2125;51.436;14.138;2022-07-09T20:47:06;15.60;87.00
4223;DHT22;2125;51.436;14.138;2022-07-09T20:49:33;15.60;87.00
4223;DHT22;2125;51.436;14.138;2022-07-09T20:52:00;15.60;87.00
4223;DHT22;2125;51.436;14.138;2022-07-09T20:54:28;15.60;87.00
4223;DHT22;2125;51.436;14.138;2022-07-09T20:56:55;15.70;86.90
4223;DHT22;2125;51.436;14.138;2022-07-09T20:59:21;15.80;86.90
4223;DHT22;2125;51.436;14.138;2022-07-09T21:01:48;15.80;86.90
4223;DHT22;2125;51.436;14.138;2022-07-09T21:04:15;15.90;86.80
4223;DHT22;2125;51.436;14.138;2022-07-09T21:06:45;15.90;86.70